Time;durP1;ratioP1;P1;durP2;ratioP2;P2;SDS_P1;SDS_P2;PMS_P1;PMS_P2;Temp;Humidity;BMP_temperature;BMP_pressure;BME280_temperature;BME280_humidity;BME280_pressure;Samples;Min_cycle;Max_cycle;Signal;HPM_P1;HPM_P2
2021/04/30 00:00:24;;;;;;;;;;;12.60;54.70;;;;;;5052105;28;74783;-69
2021/04/30 00:02:49;;;;;;;;;;;12.60;54.50;;;;;;5054170;28;74441;-67
2021/04/30 00:05:15;;;;;;;;;;;12.50;55.10;;;;;;5053579;28;75110;-65
2021/04/30 00:07:41;;;;;;;;;;;12.50;55.30;;;;;;5051781;28;75762;-68
2021/04/30 00:10:07;;;;;;;;;;;12.50;55.60;;;;;;5053833;28;75318;-66
2021/04/30 00:12:32;;;;;;;;;;;12.40;55.50;;;;;;5085926;27;75268;-66
2021/04/30 00:14:58;;;;;;;;;;;12.40;55.60;;;;;;5052038;28;77397;-67
2021/04/30 00:17:24;;;;;;;;;;;12.40;55.90;;;;;;5053249;28;75637;-66
2021/04/30 00:19:50;;;;;;;;;;;12.40;55.80;;;;;;5051850;28;77989;-65
2021/04/30 00:22:15;;;;;;;;;;;12.30;55.90;;;;;;5051742;28;77881;-64
2021/04/30 00:24:41;;;;;;;;;;;12.30;56.20;;;;;;5051387;28;75441;-65
2021/04/30 00:27:07;;;;;;;;;;;12.20;56.50;;;;;;5051843;28;76918;-64
2021/04/30 00:29:32;;;;;;;;;;;12.20;56.90;;;;;;5051571;28;76251;-64
2021/04/30 00:31:58;;;;;;;;;;;12.10;56.90;;;;;;5053441;28;74917;-65
2021/04/30 00:34:24;;;;;;;;;;;12.00;57.00;;;;;;5051505;28;76382;-66
2021/04/30 00:36:49;;;;;;;;;;;12.00;57.20;;;;;;5053066;28;75183;-68
2021/04/30 00:39:15;;;;;;;;;;;12.00;57.30;;;;;;5051652;28;75372;-65
2021/04/30 00:41:42;;;;;;;;;;;11.90;57.20;;;;;;5051218;28;77699;-65
2021/04/30 00:44:08;;;;;;;;;;;11.90;57.40;;;;;;5053219;28;75435;-65
2021/04/30 00:46:34;;;;;;;;;;;11.90;57.70;;;;;;5051464;28;77351;-64
2021/04/30 00:49:00;;;;;;;;;;;11.90;58.00;;;;;;5052989;28;75130;-65
2021/04/30 00:51:26;;;;;;;;;;;12.00;57.70;;;;;;5051209;28;74639;-65
2021/04/30 00:53:52;;;;;;;;;;;12.00;57.80;;;;;;5051321;28;78324;-68
2021/04/30 00:56:19;;;;;;;;;;;12.00;57.70;;;;;;5052953;28;75291;-68
2021/04/30 00:58:44;;;;;;;;;;;12.00;57.70;;;;;;5052742;28;75445;-65
2021/04/30 01:01:10;;;;;;;;;;;12.00;57.70;;;;;;5052915;28;75085;-65
2021/04/30 01:03:36;;;;;;;;;;;11.90;57.80;;;;;;5052422;28;75253;-65
2021/04/30 01:06:02;;;;;;;;;;;12.00;58.00;;;;;;5052969;28;75108;-69
2021/04/30 01:08:27;;;;;;;;;;;12.00;57.90;;;;;;5050887;28;74596;-69
2021/04/30 01:10:53;;;;;;;;;;;12.00;58.00;;;;;;5051258;28;76425;-69
2021/04/30 01:13:19;;;;;;;;;;;12.00;58.10;;;;;;5052705;28;75286;-69
2021/04/30 01:15:44;;;;;;;;;;;12.00;58.10;;;;;;5084526;27;77770;-67
2021/04/30 01:18:10;;;;;;;;;;;12.00;58.20;;;;;;5085055;27;76559;-68
2021/04/30 01:20:35;;;;;;;;;;;12.10;58.30;;;;;;5052105;27;75577;-66
2021/04/30 01:23:01;;;;;;;;;;;12.10;58.10;;;;;;5084566;27;77422;-68
2021/04/30 01:25:28;;;;;;;;;;;12.00;58.30;;;;;;5052543;28;74912;-68
2021/04/30 01:27:57;;;;;;;;;;;11.90;58.30;;;;;;5052699;28;74476;-69
2021/04/30 01:30:26;;;;;;;;;;;11.90;58.40;;;;;;5084135;27;75577;-68
2021/04/30 01:32:52;;;;;;;;;;;11.90;58.50;;;;;;5052771;28;75373;-69
2021/04/30 01:35:19;;;;;;;;;;;11.90;58.60;;;;;;5051040;28;77260;-69
2021/04/30 01:37:49;;;;;;;;;;;11.90;58.50;;;;;;5050415;28;75358;-68
2021/04/30 01:40:15;;;;;;;;;;;11.90;58.40;;;;;;5052731;28;74307;-66
2021/04/30 01:42:56;;;;;;;;;;;11.80;58.70;;;;;;5052402;28;74359;-64
2021/04/30 01:45:22;;;;;;;;;;;11.80;58.90;;;;;;5052296;28;74592;-64
2021/04/30 01:47:47;;;;;;;;;;;11.80;59.00;;;;;;5052253;28;75016;-63
2021/04/30 01:50:13;;;;;;;;;;;11.80;58.90;;;;;;5050460;28;75750;-66
2021/04/30 01:52:39;;;;;;;;;;;11.80;58.80;;;;;;5051861;28;75315;-66
2021/04/30 01:55:05;;;;;;;;;;;11.80;58.70;;;;;;5050422;28;77894;-65
2021/04/30 01:57:31;;;;;;;;;;;11.80;58.90;;;;;;5050521;28;77647;-64
2021/04/30 01:59:56;;;;;;;;;;;11.80;59.00;;;;;;5052137;28;75565;-67
2021/04/30 02:02:24;;;;;;;;;;;11.70;58.90;;;;;;5050301;28;75320;-65
2021/04/30 02:04:50;;;;;;;;;;;11.70;58.90;;;;;;5050412;28;76859;-65
2021/04/30 02:07:15;;;;;;;;;;;11.80;58.80;;;;;;5050139;28;75180;-66
2021/04/30 02:09:41;;;;;;;;;;;11.60;59.00;;;;;;5050249;28;77037;-66
2021/04/30 02:12:08;;;;;;;;;;;11.60;59.20;;;;;;5050202;28;78519;-66
2021/04/30 02:14:33;;;;;;;;;;;11.60;59.20;;;;;;5051987;28;75374;-65
2021/04/30 02:16:59;;;;;;;;;;;11.50;59.30;;;;;;5052044;28;75685;-65
2021/04/30 02:19:25;;;;;;;;;;;11.60;59.20;;;;;;5051663;28;75122;-64
2021/04/30 02:21:50;;;;;;;;;;;11.60;59.30;;;;;;5049837;28;77553;-65
2021/04/30 02:24:16;;;;;;;;;;;11.60;59.30;;;;;;5050155;28;77679;-67
2021/04/30 02:26:41;;;;;;;;;;;11.50;59.30;;;;;;5051842;28;75404;-65
2021/04/30 02:29:07;;;;;;;;;;;11.60;59.60;;;;;;5052228;28;74412;-64
2021/04/30 02:31:33;;;;;;;;;;;11.60;59.30;;;;;;5049947;28;75288;-64
2021/04/30 02:33:58;;;;;;;;;;;11.60;59.40;;;;;;5050202;28;78086;-64
2021/04/30 02:36:24;;;;;;;;;;;11.50;59.50;;;;;;5049944;28;78595;-65
2021/04/30 02:38:49;;;;;;;;;;;11.50;59.70;;;;;;5051582;28;75264;-65
2021/04/30 02:41:15;;;;;;;;;;;11.50;59.80;;;;;;5083978;27;74667;-64
2021/04/30 02:43:41;;;;;;;;;;;11.50;59.80;;;;;;5053349;28;77354;-64
2021/04/30 02:46:06;;;;;;;;;;;11.40;59.70;;;;;;5053281;28;79103;-67
2021/04/30 02:48:34;;;;;;;;;;;11.30;60.10;;;;;;5052997;27;75299;-64
2021/04/30 02:51:01;;;;;;;;;;;11.30;60.10;;;;;;5053324;28;75334;-64
2021/04/30 02:53:27;;;;;;;;;;;11.20;60.20;;;;;;5054501;28;75366;-66
2021/04/30 02:55:52;;;;;;;;;;;11.30;59.90;;;;;;5053226;28;78230;-64
2021/04/30 02:58:18;;;;;;;;;;;11.40;60.00;;;;;;5053200;28;75156;-65
2021/04/30 03:00:44;;;;;;;;;;;11.40;60.10;;;;;;5053050;28;77492;-65
2021/04/30 03:03:10;;;;;;;;;;;11.30;60.30;;;;;;5052916;28;76155;-65
2021/04/30 03:05:35;;;;;;;;;;;11.40;60.40;;;;;;5052929;28;77159;-65
2021/04/30 03:08:01;;;;;;;;;;;11.40;60.40;;;;;;5054604;28;75613;-68
2021/04/30 03:10:27;;;;;;;;;;;11.50;60.20;;;;;;5052900;28;77548;-67
2021/04/30 03:12:52;;;;;;;;;;;11.50;60.00;;;;;;5054629;28;75383;-67
2021/04/30 03:15:18;;;;;;;;;;;11.50;60.00;;;;;;5052942;28;77788;-69
2021/04/30 03:17:45;;;;;;;;;;;11.50;60.00;;;;;;5054908;28;74372;-68
2021/04/30 03:20:10;;;;;;;;;;;11.50;60.00;;;;;;5055080;28;75763;-68
2021/04/30 03:22:36;;;;;;;;;;;11.50;60.20;;;;;;5052384;28;76984;-65
2021/04/30 03:25:03;;;;;;;;;;;11.60;60.20;;;;;;5054799;28;74957;-67
2021/04/30 03:27:29;;;;;;;;;;;11.60;60.10;;;;;;5052796;28;78738;-68
2021/04/30 03:29:55;;;;;;;;;;;11.70;60.10;;;;;;5054801;28;74382;-68
2021/04/30 03:32:21;;;;;;;;;;;11.70;60.10;;;;;;5054693;28;74465;-66
2021/04/30 03:34:46;;;;;;;;;;;11.80;60.00;;;;;;5054093;28;75716;-66
2021/04/30 03:37:12;;;;;;;;;;;11.80;59.80;;;;;;5052617;28;75509;-65
2021/04/30 03:39:37;;;;;;;;;;;11.80;59.60;;;;;;5052660;28;74684;-65
2021/04/30 03:42:03;;;;;;;;;;;11.80;59.80;;;;;;5052709;28;77086;-68
2021/04/30 03:44:29;;;;;;;;;;;11.80;59.70;;;;;;5052536;28;76527;-65
2021/04/30 03:46:54;;;;;;;;;;;11.80;59.70;;;;;;5054249;28;75093;-65
2021/04/30 03:49:20;;;;;;;;;;;11.80;59.50;;;;;;5053945;28;75256;-65
2021/04/30 03:51:46;;;;;;;;;;;11.70;59.70;;;;;;5053647;27;75104;-65
2021/04/30 03:54:12;;;;;;;;;;;11.50;59.90;;;;;;5052089;28;78296;-66
2021/04/30 03:56:38;;;;;;;;;;;11.50;60.20;;;;;;5053913;28;74986;-66
2021/04/30 03:59:04;;;;;;;;;;;11.50;60.30;;;;;;5053232;28;77021;-64
2021/04/30 04:01:29;;;;;;;;;;;11.50;60.10;;;;;;5053823;28;75153;-66
2021/04/30 04:03:55;;;;;;;;;;;11.40;60.50;;;;;;5053670;28;75090;-66
2021/04/30 04:06:21;;;;;;;;;;;11.40;60.50;;;;;;5053907;28;74948;-64
2021/04/30 04:08:46;;;;;;;;;;;11.40;60.50;;;;;;5051694;28;76462;-63
2021/04/30 04:11:12;;;;;;;;;;;11.40;60.60;;;;;;5051928;28;76964;-65
2021/04/30 04:13:37;;;;;;;;;;;11.30;60.70;;;;;;5051930;28;75354;-63
2021/04/30 04:16:04;;;;;;;;;;;11.30;60.90;;;;;;5053558;28;74894;-64
2021/04/30 04:18:30;;;;;;;;;;;11.40;60.80;;;;;;5052179;28;75362;-63
2021/04/30 04:20:56;;;;;;;;;;;11.30;60.80;;;;;;5051867;28;77953;-62
2021/04/30 04:23:22;;;;;;;;;;;11.20;60.60;;;;;;5051790;28;77356;-63
2021/04/30 04:25:48;;;;;;;;;;;11.10;61.00;;;;;;5053325;28;74992;-62
2021/04/30 04:28:14;;;;;;;;;;;11.10;61.50;;;;;;5051780;28;77473;-63
2021/04/30 04:30:40;;;;;;;;;;;11.00;61.50;;;;;;5051657;28;75631;-63
2021/04/30 04:33:05;;;;;;;;;;;11.00;61.60;;;;;;5051835;28;77124;-62
2021/04/30 04:35:31;;;;;;;;;;;11.00;61.70;;;;;;5051671;28;76838;-63
2021/04/30 04:37:57;;;;;;;;;;;10.90;61.80;;;;;;5051408;28;76602;-63
2021/04/30 04:40:25;;;;;;;;;;;10.90;61.80;;;;;;5053264;28;75187;-63
2021/04/30 04:42:51;;;;;;;;;;;10.90;62.10;;;;;;5053451;28;74519;-63
2021/04/30 04:45:17;;;;;;;;;;;10.80;62.30;;;;;;5051762;28;75886;-62
2021/04/30 04:47:43;;;;;;;;;;;10.70;62.40;;;;;;5051540;28;74771;-62
2021/04/30 04:50:09;;;;;;;;;;;10.70;62.40;;;;;;5052824;28;75682;-61
2021/04/30 04:52:35;;;;;;;;;;;10.60;62.70;;;;;;5051603;28;77708;-62
2021/04/30 04:55:01;;;;;;;;;;;10.60;62.80;;;;;;5053131;28;74628;-63
2021/04/30 04:57:26;;;;;;;;;;;10.60;63.00;;;;;;5051258;28;74667;-64
2021/04/30 04:59:52;;;;;;;;;;;10.50;63.10;;;;;;5054905;27;75575;-63
2021/04/30 05:02:18;;;;;;;;;;;10.50;63.20;;;;;;5052088;28;75340;-62
2021/04/30 05:04:44;;;;;;;;;;;10.50;63.40;;;;;;5049231;28;77730;-62
2021/04/30 05:07:10;;;;;;;;;;;10.50;63.60;;;;;;5051621;27;75254;-63
2021/04/30 05:09:36;;;;;;;;;;;10.50;63.50;;;;;;5051503;28;75300;-63
2021/04/30 05:12:01;;;;;;;;;;;10.50;63.60;;;;;;5052754;27;75727;-61
2021/04/30 05:14:27;;;;;;;;;;;10.60;63.80;;;;;;5053248;27;74836;-68
2021/04/30 05:16:52;;;;;;;;;;;10.60;63.90;;;;;;5050958;28;77356;-67
2021/04/30 05:19:18;;;;;;;;;;;10.60;64.00;;;;;;5052504;27;75107;-66
2021/04/30 05:21:46;;;;;;;;;;;10.70;64.00;;;;;;5050700;28;77780;-66
2021/04/30 05:24:12;;;;;;;;;;;10.70;63.90;;;;;;5051298;27;75481;-66
2021/04/30 05:26:38;;;;;;;;;;;10.60;63.80;;;;;;5050799;28;76505;-68
2021/04/30 05:29:04;;;;;;;;;;;10.70;63.80;;;;;;5051031;28;74613;-66
2021/04/30 05:31:30;;;;;;;;;;;10.80;63.60;;;;;;5042786;28;77462;-67
2021/04/30 05:33:55;;;;;;;;;;;10.80;63.40;;;;;;5049873;28;75806;-68
2021/04/30 05:36:21;;;;;;;;;;;10.80;63.40;;;;;;5047883;27;75798;-68
2021/04/30 05:38:46;;;;;;;;;;;10.80;63.40;;;;;;5050663;28;77125;-68
2021/04/30 05:41:12;;;;;;;;;;;10.80;63.50;;;;;;5049983;28;77888;-67
2021/04/30 05:43:38;;;;;;;;;;;10.80;63.70;;;;;;5050629;28;77445;-68
2021/04/30 05:46:03;;;;;;;;;;;10.90;63.60;;;;;;5052055;27;75240;-67
2021/04/30 05:48:29;;;;;;;;;;;10.90;63.60;;;;;;5050657;28;77166;-67
2021/04/30 05:50:54;;;;;;;;;;;10.90;63.60;;;;;;5051609;27;74616;-67
2021/04/30 05:53:22;;;;;;;;;;;10.90;63.70;;;;;;5050444;28;76455;-67
2021/04/30 05:55:48;;;;;;;;;;;10.90;63.50;;;;;;5050492;28;76360;-68
2021/04/30 05:58:13;;;;;;;;;;;10.90;63.40;;;;;;5052070;27;75122;-68
2021/04/30 06:00:39;;;;;;;;;;;10.90;63.50;;;;;;5049849;28;77006;-67
2021/04/30 06:03:05;;;;;;;;;;;11.00;63.40;;;;;;5051708;27;75160;-67
2021/04/30 06:05:30;;;;;;;;;;;11.00;63.30;;;;;;5051745;28;75811;-67
2021/04/30 06:07:56;;;;;;;;;;;11.10;63.00;;;;;;5051527;28;75065;-67
2021/04/30 06:10:21;;;;;;;;;;;11.20;63.00;;;;;;5051329;28;75295;-66
2021/04/30 06:12:47;;;;;;;;;;;11.20;62.90;;;;;;5050558;28;76416;-67
2021/04/30 06:15:13;;;;;;;;;;;11.30;62.80;;;;;;5052047;27;74597;-68
2021/04/30 06:17:38;;;;;;;;;;;11.40;62.70;;;;;;5055556;28;75094;-67
2021/04/30 06:20:04;;;;;;;;;;;11.40;62.40;;;;;;5054867;27;75806;-67
2021/04/30 06:22:30;;;;;;;;;;;11.40;62.20;;;;;;5054478;27;75432;-67
2021/04/30 06:24:56;;;;;;;;;;;11.50;62.40;;;;;;5055003;28;75660;-67
2021/04/30 06:27:21;;;;;;;;;;;11.50;62.40;;;;;;5053644;28;75288;-66
2021/04/30 06:29:47;;;;;;;;;;;11.70;62.30;;;;;;5053336;28;77912;-66
2021/04/30 06:32:13;;;;;;;;;;;11.70;62.00;;;;;;5052792;27;75699;-67
2021/04/30 06:34:38;;;;;;;;;;;11.80;61.80;;;;;;5052089;27;75567;-67
2021/04/30 06:37:04;;;;;;;;;;;11.90;61.90;;;;;;5052993;28;76906;-67
2021/04/30 06:39:30;;;;;;;;;;;12.00;61.60;;;;;;5053541;28;75767;-67
2021/04/30 06:41:56;;;;;;;;;;;12.10;61.30;;;;;;5054069;27;75385;-66
2021/04/30 06:44:22;;;;;;;;;;;12.10;60.70;;;;;;5053325;28;76177;-66
2021/04/30 06:46:48;;;;;;;;;;;12.20;60.80;;;;;;5055170;28;74495;-66
2021/04/30 06:49:14;;;;;;;;;;;12.20;60.70;;;;;;5053119;28;74590;-66
2021/04/30 06:51:39;;;;;;;;;;;12.20;60.30;;;;;;5052980;28;75032;-67
2021/04/30 06:54:05;;;;;;;;;;;12.10;60.70;;;;;;5051656;28;76184;-67
2021/04/30 06:56:31;;;;;;;;;;;12.10;61.00;;;;;;5053095;28;77301;-67
2021/04/30 06:58:57;;;;;;;;;;;12.10;60.80;;;;;;5052700;28;75286;-67
2021/04/30 07:01:23;;;;;;;;;;;12.10;60.80;;;;;;5050420;28;75372;-66
2021/04/30 07:03:49;;;;;;;;;;;12.20;60.80;;;;;;5052736;28;75433;-66
2021/04/30 07:06:15;;;;;;;;;;;12.30;60.70;;;;;;5053363;28;77566;-67
2021/04/30 07:08:41;;;;;;;;;;;12.30;60.60;;;;;;5053614;28;75544;-69
2021/04/30 07:11:08;;;;;;;;;;;12.40;60.30;;;;;;5052797;28;74730;-68
2021/04/30 07:13:35;;;;;;;;;;;12.40;60.30;;;;;;5054869;27;75226;-67
2021/04/30 07:16:01;;;;;;;;;;;12.40;60.40;;;;;;5053271;28;76664;-67
2021/04/30 07:18:27;;;;;;;;;;;12.50;60.30;;;;;;5054849;28;75423;-67
2021/04/30 07:20:52;;;;;;;;;;;12.60;60.40;;;;;;5052726;28;76914;-67
2021/04/30 07:23:18;;;;;;;;;;;12.60;60.20;;;;;;5053061;28;74691;-66
2021/04/30 07:25:44;;;;;;;;;;;12.70;60.20;;;;;;5053084;28;77996;-67
2021/04/30 07:28:09;;;;;;;;;;;12.90;59.60;;;;;;5053832;27;75109;-68
2021/04/30 07:30:35;;;;;;;;;;;12.90;59.40;;;;;;5053001;28;76907;-68
2021/04/30 07:33:00;;;;;;;;;;;13.00;59.40;;;;;;5052952;28;75793;-68
2021/04/30 07:35:26;;;;;;;;;;;13.20;59.10;;;;;;5052715;28;75363;-66
2021/04/30 07:37:52;;;;;;;;;;;13.30;58.70;;;;;;5054558;27;74521;-67
2021/04/30 07:40:17;;;;;;;;;;;13.40;58.50;;;;;;5052836;28;77122;-66
2021/04/30 07:42:43;;;;;;;;;;;13.30;58.00;;;;;;5053793;27;75804;-66
2021/04/30 07:45:10;;;;;;;;;;;13.30;58.40;;;;;;5053436;28;75004;-67
2021/04/30 07:47:36;;;;;;;;;;;13.30;57.90;;;;;;5055015;28;75158;-69
2021/04/30 07:50:02;;;;;;;;;;;13.40;58.10;;;;;;5053354;28;75180;-66
2021/04/30 07:52:28;;;;;;;;;;;13.50;57.70;;;;;;5052116;28;76805;-67
2021/04/30 07:54:53;;;;;;;;;;;13.60;57.50;;;;;;5052698;28;78110;-67
2021/04/30 07:57:19;;;;;;;;;;;13.50;56.90;;;;;;5053896;28;75135;-68
2021/04/30 07:59:45;;;;;;;;;;;13.40;57.80;;;;;;5053283;28;75188;-68
2021/04/30 08:02:11;;;;;;;;;;;13.40;57.70;;;;;;5049981;28;74652;-68
2021/04/30 08:04:36;;;;;;;;;;;13.40;57.60;;;;;;5050340;28;74760;-67
2021/04/30 08:07:02;;;;;;;;;;;13.40;57.50;;;;;;5052905;28;75271;-68
2021/04/30 08:09:28;;;;;;;;;;;13.50;58.00;;;;;;5053387;28;75009;-69
2021/04/30 08:11:53;;;;;;;;;;;13.80;57.60;;;;;;5053518;28;75549;-68
2021/04/30 08:14:19;;;;;;;;;;;13.90;56.70;;;;;;5051929;28;77256;-69
2021/04/30 08:16:45;;;;;;;;;;;13.90;56.60;;;;;;5053607;28;75130;-69
2021/04/30 08:19:10;;;;;;;;;;;14.10;56.70;;;;;;5052006;28;76468;-69
2021/04/30 08:21:36;;;;;;;;;;;14.40;56.30;;;;;;5051656;28;78032;-69
2021/04/30 08:24:02;;;;;;;;;;;14.70;55.50;;;;;;5053718;28;75135;-70
2021/04/30 08:26:28;;;;;;;;;;;14.90;54.80;;;;;;5051457;28;77613;-69
2021/04/30 08:28:54;;;;;;;;;;;15.00;54.80;;;;;;5053683;28;75209;-69
2021/04/30 08:31:23;;;;;;;;;;;15.00;54.10;;;;;;5053844;28;75059;-67
2021/04/30 08:33:49;;;;;;;;;;;15.00;54.00;;;;;;5051429;28;75339;-69
2021/04/30 08:36:15;;;;;;;;;;;14.90;54.50;;;;;;5051870;28;75062;-68
2021/04/30 08:38:41;;;;;;;;;;;14.70;54.80;;;;;;5051471;27;75853;-69
2021/04/30 08:41:07;;;;;;;;;;;14.60;55.40;;;;;;5051426;28;76275;-68
2021/04/30 08:43:34;;;;;;;;;;;14.50;55.10;;;;;;5051690;28;76035;-68
2021/04/30 08:46:00;;;;;;;;;;;14.60;55.50;;;;;;5052059;28;75748;-69
2021/04/30 08:48:26;;;;;;;;;;;14.70;55.10;;;;;;5052034;28;75217;-69
2021/04/30 08:50:54;;;;;;;;;;;14.80;54.80;;;;;;5051674;28;75481;-69
2021/04/30 08:53:20;;;;;;;;;;;14.80;54.60;;;;;;5051279;28;75732;-68
2021/04/30 08:55:48;;;;;;;;;;;14.90;54.60;;;;;;5053512;27;74441;-68
2021/04/30 08:58:14;;;;;;;;;;;15.00;54.30;;;;;;5052056;28;74629;-69
2021/04/30 09:00:40;;;;;;;;;;;15.00;53.70;;;;;;5050123;28;77028;-68
2021/04/30 09:03:08;;;;;;;;;;;14.90;53.60;;;;;;5049750;28;76411;-69
2021/04/30 09:05:34;;;;;;;;;;;14.80;54.70;;;;;;5051168;28;75817;-68
2021/04/30 09:08:02;;;;;;;;;;;15.00;54.70;;;;;;5050120;28;94612;-69
2021/04/30 09:10:36;;;;;;;;;;;15.10;53.70;;;;;;5052791;27;75137;-68
2021/04/30 09:13:11;;;;;;;;;;;15.10;53.40;;;;;;5051939;28;74684;-69
2021/04/30 09:15:37;;;;;;;;;;;15.00;54.30;;;;;;5051191;28;76140;-69
2021/04/30 09:18:27;;;;;;;;;;;15.20;54.20;;;;;;5051025;28;75076;-69
2021/04/30 09:20:54;;;;;;;;;;;15.40;53.20;;;;;;5051343;28;77967;-69
2021/04/30 09:23:33;;;;;;;;;;;15.60;52.30;;;;;;5051369;28;76439;-68
2021/04/30 09:25:59;;;;;;;;;;;15.70;52.40;;;;;;5051305;28;77564;-69
2021/04/30 09:28:25;;;;;;;;;;;15.90;52.00;;;;;;5052888;28;75257;-68
2021/04/30 09:30:51;;;;;;;;;;;16.10;51.80;;;;;;5050833;28;78141;-68
2021/04/30 09:33:22;;;;;;;;;;;16.10;50.70;;;;;;5050916;28;76427;-69
2021/04/30 09:35:50;;;;;;;;;;;16.30;50.80;;;;;;5050994;28;77384;-69
2021/04/30 09:38:17;;;;;;;;;;;16.50;50.70;;;;;;5050726;28;76209;-69
2021/04/30 09:40:43;;;;;;;;;;;16.80;48.90;;;;;;5050812;28;74591;-68
2021/04/30 09:43:10;;;;;;;;;;;16.60;48.30;;;;;;5050996;28;76287;-68
2021/04/30 09:45:36;;;;;;;;;;;16.50;48.50;;;;;;5052834;27;75330;-69
2021/04/30 09:48:06;;;;;;;;;;;16.70;48.40;;;;;;5052039;27;76308;-70
2021/04/30 09:50:32;;;;;;;;;;;17.10;48.30;;;;;;5051629;28;75573;-69
2021/04/30 09:52:59;;;;;;;;;;;17.20;46.40;;;;;;5055653;27;75207;-69
2021/04/30 09:55:57;;;;;;;;;;;17.00;46.80;;;;;;5056387;27;75191;-69
2021/04/30 09:58:23;;;;;;;;;;;16.70;47.00;;;;;;5032337;28;75169;-68
2021/04/30 10:00:53;;;;;;;;;;;16.60;48.20;;;;;;5054335;28;77665;-70
2021/04/30 10:03:23;;;;;;;;;;;16.50;48.00;;;;;;5052754;28;77711;-69
2021/04/30 10:06:06;;;;;;;;;;;16.30;46.90;;;;;;5053824;28;75156;-69
2021/04/30 10:08:35;;;;;;;;;;;16.20;48.50;;;;;;5055791;27;74493;-69
2021/04/30 10:11:01;;;;;;;;;;;16.00;48.00;;;;;;5054475;27;75262;-70
2021/04/30 10:13:26;;;;;;;;;;;15.90;47.60;;;;;;5052351;28;75415;-69
2021/04/30 10:15:52;;;;;;;;;;;15.90;48.70;;;;;;5055017;28;75740;-70
2021/04/30 10:18:18;;;;;;;;;;;16.20;49.10;;;;;;5056093;27;74958;-70
2021/04/30 10:20:48;;;;;;;;;;;16.60;48.50;;;;;;5055569;27;75087;-69
2021/04/30 10:23:19;;;;;;;;;;;17.00;47.50;;;;;;5053747;28;74779;-70
2021/04/30 10:25:49;;;;;;;;;;;17.00;46.50;;;;;;5054176;28;75408;-69
2021/04/30 10:28:24;;;;;;;;;;;17.00;46.20;;;;;;5053668;28;75697;-70
2021/04/30 10:30:54;;;;;;;;;;;16.90;45.30;;;;;;5053911;28;77198;-69
2021/04/30 10:33:24;;;;;;;;;;;16.80;45.50;;;;;;5053434;28;76113;-69
2021/04/30 10:35:56;;;;;;;;;;;16.90;45.60;;;;;;5054117;28;74441;-69
2021/04/30 10:38:23;;;;;;;;;;;17.10;45.30;;;;;;5055233;27;75359;-68
2021/04/30 10:41:05;;;;;;;;;;;17.30;45.40;;;;;;5053659;28;76722;-69
2021/04/30 10:43:31;;;;;;;;;;;17.30;45.10;;;;;;5053545;28;76349;-70
2021/04/30 10:46:05;;;;;;;;;;;17.90;44.40;;;;;;5053865;28;75363;-70
2021/04/30 10:48:31;;;;;;;;;;;18.90;41.80;;;;;;5055260;27;75027;-69
2021/04/30 10:51:13;;;;;;;;;;;20.20;38.70;;;;;;5054956;27;75254;-68
2021/04/30 10:53:39;;;;;;;;;;;21.20;38.40;;;;;;5054945;27;75832;-69
2021/04/30 10:56:25;;;;;;;;;;;22.40;34.70;;;;;;5053250;28;77476;-69
2021/04/30 10:58:51;;;;;;;;;;;22.70;34.10;;;;;;5052495;27;74781;-66
2021/04/30 11:01:20;;;;;;;;;;;23.60;32.80;;;;;;5054781;27;75154;-70
2021/04/30 11:04:12;;;;;;;;;;;24.50;32.00;;;;;;5053759;27;75681;-69
2021/04/30 11:06:45;;;;;;;;;;;25.40;31.00;;;;;;5050211;28;75588;-70
2021/04/30 11:09:15;;;;;;;;;;;26.60;30.00;;;;;;5052921;28;77094;-69
2021/04/30 11:11:42;;;;;;;;;;;27.40;29.10;;;;;;5053185;28;77548;-70
2021/04/30 11:14:20;;;;;;;;;;;28.70;28.00;;;;;;5054528;27;74959;-70
2021/04/30 11:16:46;;;;;;;;;;;28.90;26.70;;;;;;5052481;27;75301;-70
2021/04/30 11:19:12;;;;;;;;;;;28.70;24.90;;;;;;5053409;28;74943;-66
2021/04/30 11:21:42;;;;;;;;;;;28.00;25.60;;;;;;5054783;28;74982;-70
2021/04/30 11:24:26;;;;;;;;;;;26.20;27.70;;;;;;5054129;28;74624;-69
2021/04/30 11:27:07;;;;;;;;;;;24.50;29.90;;;;;;5054680;28;74431;-69
2021/04/30 11:29:32;;;;;;;;;;;25.40;30.20;;;;;;5053541;28;74696;-70
2021/04/30 11:32:17;;;;;;;;;;;28.40;25.80;;;;;;5052753;28;77795;-70
2021/04/30 11:34:56;;;;;;;;;;;30.40;23.50;;;;;;5052506;28;76374;-70
2021/04/30 11:37:23;;;;;;;;;;;31.50;21.90;;;;;;5051691;28;75242;-70
2021/04/30 11:39:51;;;;;;;;;;;30.50;22.50;;;;;;5051194;28;75096;-70
2021/04/30 11:42:17;;;;;;;;;;;28.30;24.70;;;;;;5054036;28;75293;-70
2021/04/30 11:44:43;;;;;;;;;;;26.20;26.80;;;;;;5052592;28;74717;-70
2021/04/30 11:47:15;;;;;;;;;;;25.20;28.70;;;;;;5052607;28;75417;-72
2021/04/30 11:49:41;;;;;;;;;;;25.40;28.70;;;;;;5054301;27;75191;-70
2021/04/30 11:52:08;;;;;;;;;;;25.30;27.00;;;;;;5052958;28;75776;-70
2021/04/30 11:54:37;;;;;;;;;;;25.50;25.70;;;;;;5054436;27;74517;-70
2021/04/30 11:57:05;;;;;;;;;;;24.70;27.20;;;;;;5053595;28;75290;-69
2021/04/30 11:59:31;;;;;;;;;;;23.70;28.80;;;;;;5053625;28;78657;-70
2021/04/30 12:02:01;;;;;;;;;;;25.30;26.50;;;;;;5055575;28;75569;-73
2021/04/30 12:04:37;;;;;;;;;;;25.70;26.00;;;;;;5052102;28;75617;-71
2021/04/30 12:07:03;;;;;;;;;;;27.20;27.00;;;;;;5053465;28;77514;-71
2021/04/30 12:09:29;;;;;;;;;;;31.00;23.30;;;;;;5052143;28;74704;-72
2021/04/30 12:11:55;;;;;;;;;;;30.80;21.10;;;;;;5052094;28;77229;-71
2021/04/30 12:14:21;;;;;;;;;;;30.00;23.30;;;;;;5051232;27;77338;-71
2021/04/30 12:17:06;;;;;;;;;;;28.50;23.20;;;;;;5053647;27;74980;-72
2021/04/30 12:19:32;;;;;;;;;;;26.80;24.80;;;;;;5051278;28;76623;-72
2021/04/30 12:21:58;;;;;;;;;;;27.00;26.00;;;;;;5053269;27;74720;-72
2021/04/30 12:24:23;;;;;;;;;;;29.40;24.40;;;;;;5053290;27;75126;-72
2021/04/30 12:26:49;;;;;;;;;;;30.40;21.20;;;;;;5052105;28;75792;-71
2021/04/30 12:29:14;;;;;;;;;;;28.30;23.70;;;;;;5050588;27;77327;-72
2021/04/30 12:31:40;;;;;;;;;;;26.80;25.50;;;;;;5053671;28;75241;-72
2021/04/30 12:34:06;;;;;;;;;;;26.40;26.30;;;;;;5053617;28;75297;-73
2021/04/30 12:36:32;;;;;;;;;;;26.50;26.10;;;;;;5052349;28;75217;-69
2021/04/30 12:39:08;;;;;;;;;;;25.80;26.20;;;;;;5051909;28;74802;-71
2021/04/30 12:41:37;;;;;;;;;;;24.70;27.50;;;;;;5053620;27;75453;-73
2021/04/30 12:44:07;;;;;;;;;;;24.70;26.90;;;;;;5051820;28;77857;-72
2021/04/30 12:46:34;;;;;;;;;;;25.20;27.20;;;;;;5051545;28;75844;-70
2021/04/30 12:49:06;;;;;;;;;;;25.60;26.80;;;;;;5051603;28;74742;-71
2021/04/30 12:51:33;;;;;;;;;;;26.00;26.30;;;;;;5051399;28;75741;-72
2021/04/30 12:53:59;;;;;;;;;;;26.10;26.30;;;;;;5051611;28;77498;-71
2021/04/30 12:56:32;;;;;;;;;;;26.30;26.30;;;;;;5053169;27;75051;-71
2021/04/30 12:59:25;;;;;;;;;;;27.10;25.40;;;;;;5050902;27;76256;-70
2021/04/30 13:02:07;;;;;;;;;;;28.00;24.00;;;;;;5049363;28;74472;-70
2021/04/30 13:04:40;;;;;;;;;;;28.90;22.80;;;;;;5052912;28;75256;-71
2021/04/30 13:07:06;;;;;;;;;;;28.70;24.00;;;;;;5053072;28;75306;-71
2021/04/30 13:09:33;;;;;;;;;;;29.10;23.40;;;;;;5051427;28;75068;-72
2021/04/30 13:12:03;;;;;;;;;;;30.10;23.40;;;;;;5053363;28;75225;-72
2021/04/30 13:14:42;;;;;;;;;;;30.40;22.00;;;;;;5053090;28;76482;-70
2021/04/30 13:17:15;;;;;;;;;;;30.70;22.40;;;;;;5051542;28;77190;-71
2021/04/30 13:19:41;;;;;;;;;;;30.20;21.70;;;;;;5051281;28;75426;-71
2021/04/30 13:22:12;;;;;;;;;;;29.80;22.00;;;;;;5052914;28;74968;-70
2021/04/30 13:24:38;;;;;;;;;;;28.90;22.50;;;;;;5052320;28;74973;-71
2021/04/30 13:27:05;;;;;;;;;;;27.70;23.50;;;;;;5051022;28;75003;-71
2021/04/30 13:29:32;;;;;;;;;;;26.50;24.90;;;;;;5051105;27;75349;-71
2021/04/30 13:32:02;;;;;;;;;;;25.50;25.70;;;;;;5052950;28;75897;-72
2021/04/30 13:34:34;;;;;;;;;;;25.30;26.80;;;;;;5051356;28;75637;-71
2021/04/30 13:37:02;;;;;;;;;;;25.00;27.00;;;;;;5050758;28;74609;-70
2021/04/30 13:39:29;;;;;;;;;;;25.10;26.40;;;;;;5051113;28;78003;-70
2021/04/30 13:41:55;;;;;;;;;;;25.30;27.30;;;;;;5050730;28;77512;-71
2021/04/30 13:44:21;;;;;;;;;;;25.70;27.20;;;;;;5052422;27;75670;-70
2021/04/30 13:46:51;;;;;;;;;;;26.20;25.50;;;;;;5051062;28;78085;-70
2021/04/30 13:49:17;;;;;;;;;;;25.60;25.90;;;;;;5050748;28;74706;-70
2021/04/30 13:51:42;;;;;;;;;;;24.80;27.20;;;;;;5053029;28;75805;-70
2021/04/30 13:54:08;;;;;;;;;;;24.80;27.80;;;;;;5050514;28;76869;-71
2021/04/30 13:56:34;;;;;;;;;;;25.90;26.70;;;;;;5052694;28;74555;-70
2021/04/30 13:59:04;;;;;;;;;;;27.30;25.50;;;;;;5052331;27;75058;-70
2021/04/30 14:01:30;;;;;;;;;;;27.90;24.30;;;;;;5050776;28;75822;-70
2021/04/30 14:03:56;;;;;;;;;;;29.10;23.40;;;;;;5052150;28;75157;-71
2021/04/30 14:06:22;;;;;;;;;;;29.70;22.00;;;;;;5050597;28;74737;-70
2021/04/30 14:08:47;;;;;;;;;;;29.70;21.80;;;;;;5050569;28;75077;-70
2021/04/30 14:11:13;;;;;;;;;;;29.50;22.80;;;;;;5052020;28;75085;-69
2021/04/30 14:13:39;;;;;;;;;;;29.00;22.80;;;;;;5052847;28;75477;-69
2021/04/30 14:16:06;;;;;;;;;;;28.40;22.80;;;;;;5052808;28;75600;-69